Time;durP1;ratioP1;P1;durP2;ratioP2;P2;SDS_P1;SDS_P2;PMS_P1;PMS_P2;Temp;Humidity;BMP_temperature;BMP_pressure;BME280_temperature;BME280_humidity;BME280_pressure;Samples;Min_cycle;Max_cycle;Signal;HPM_P1;HPM_P2
2022/09/21 00:00:00;;;;;;;18.30;9.77;;;9.80;99.90;;;;;;5114882;28;20043;-51
2022/09/21 00:02:25;;;;;;;23.45;11.15;;;9.80;99.90;;;;;;5114743;28;20072;-51
2022/09/21 00:04:51;;;;;;;17.95;9.80;;;9.70;99.90;;;;;;5114937;28;20047;-51
2022/09/21 00:07:17;;;;;;;20.15;9.93;;;9.80;99.90;;;;;;5115023;28;20027;-51
2022/09/21 00:09:43;;;;;;;19.83;9.95;;;9.80;99.90;;;;;;5114826;28;20054;-51
2022/09/21 00:12:09;;;;;;;18.73;11.15;;;9.80;99.90;;;;;;5114668;28;20460;-51
2022/09/21 00:14:35;;;;;;;16.83;9.88;;;9.80;99.90;;;;;;5114949;28;20031;-51
2022/09/21 00:17:01;;;;;;;20.48;9.75;;;9.70;99.90;;;;;;5114951;28;20027;-51
2022/09/21 00:19:27;;;;;;;18.45;9.60;;;9.60;99.90;;;;;;5114737;28;20043;-51
2022/09/21 00:21:54;;;;;;;19.48;10.30;;;9.60;99.90;;;;;;5114796;28;20047;-51
2022/09/21 00:24:20;;;;;;;23.27;13.52;;;9.60;99.90;;;;;;5114829;28;20020;-51
2022/09/21 00:26:46;;;;;;;28.42;14.45;;;9.60;99.90;;;;;;5114689;28;20495;-51
2022/09/21 00:29:12;;;;;;;24.88;13.95;;;9.60;99.90;;;;;;5113528;28;20038;-51
2022/09/21 00:31:38;;;;;;;30.73;16.27;;;9.60;99.90;;;;;;5114861;28;20019;-51
2022/09/21 00:34:06;;;;;;;27.00;15.80;;;9.60;99.90;;;;;;5114748;28;20024;-51
2022/09/21 00:36:33;;;;;;;37.25;18.27;;;9.70;99.90;;;;;;5114793;28;20463;-51
2022/09/21 00:39:00;;;;;;;32.40;17.02;;;9.70;99.90;;;;;;5114639;28;20066;-51
2022/09/21 00:41:27;;;;;;;40.00;19.05;;;9.70;99.90;;;;;;5114629;28;20032;-51
2022/09/21 00:44:15;;;;;;;43.35;18.70;;;9.70;99.90;;;;;;5114704;28;20030;-51
2022/09/21 00:46:42;;;;;;;34.33;17.25;;;9.70;99.90;;;;;;5117704;28;20024;-51
2022/09/21 00:49:08;;;;;;;43.00;19.98;;;9.70;99.90;;;;;;5118602;28;20106;-51
2022/09/21 00:51:36;;;;;;;52.55;21.52;;;9.70;99.90;;;;;;5118436;27;20122;-51
2022/09/21 00:54:08;;;;;;;48.00;24.52;;;9.70;99.90;;;;;;5118429;28;20122;-51
2022/09/21 00:56:36;;;;;;;58.47;25.20;;;9.80;99.90;;;;;;5118432;28;20031;-51
2022/09/21 00:59:03;;;;;;;45.50;22.77;;;9.70;99.90;;;;;;5118139;28;20028;-51
2022/09/21 01:01:29;;;;;;;57.72;25.25;;;9.70;99.90;;;;;;5118417;28;20024;-51
2022/09/21 01:03:56;;;;;;;67.95;26.60;;;9.60;99.90;;;;;;5118258;28;20027;-51
2022/09/21 01:06:23;;;;;;;66.18;26.45;;;9.70;99.90;;;;;;5118152;28;20030;-51
2022/09/21 01:08:57;;;;;;;71.38;27.10;;;9.70;99.90;;;;;;5118059;28;20086;-51
2022/09/21 01:11:57;;;;;;;64.60;28.95;;;9.70;99.90;;;;;;5118068;28;20492;-51
2022/09/21 01:14:54;;;;;;;68.45;28.48;;;9.70;99.90;;;;;;5117936;28;20028;-51
2022/09/21 01:17:37;;;;;;;82.68;28.67;;;9.70;99.90;;;;;;5118013;28;20464;-51
2022/09/21 01:20:25;;;;;;;93.63;30.77;;;9.70;99.90;;;;;;5117629;28;20361;-51
2022/09/21 01:23:32;;;;;;;94.68;32.25;;;9.60;99.90;;;;;;5117843;28;20020;-51
2022/09/21 01:26:10;;;;;;;146.52;37.60;;;9.60;99.90;;;;;;5117360;28;20127;-51
2022/09/21 01:29:14;;;;;;;163.65;44.33;;;9.70;99.90;;;;;;5117857;28;20043;-51
2022/09/21 01:32:21;;;;;;;168.32;44.38;;;9.70;99.90;;;;;;5117678;28;20027;-51
2022/09/21 01:35:03;;;;;;;163.05;41.38;;;9.70;99.90;;;;;;5117655;28;20058;-51
2022/09/21 01:37:36;;;;;;;153.75;43.20;;;9.60;99.90;;;;;;5117448;28;20034;-51
2022/09/21 01:40:15;;;;;;;150.52;41.58;;;9.60;99.90;;;;;;5117612;28;20034;-51
2022/09/21 01:42:44;;;;;;;131.90;38.78;;;9.50;99.90;;;;;;5117541;28;20507;-51
2022/09/21 01:45:15;;;;;;;126.32;37.47;;;9.50;99.90;;;;;;5117388;28;20481;-51
2022/09/21 01:47:44;;;;;;;121.07;32.92;;;9.50;99.90;;;;;;5117464;28;20031;-51
2022/09/21 01:50:11;;;;;;;100.05;30.30;;;9.60;99.90;;;;;;5117342;28;20028;-51
2022/09/21 01:53:29;;;;;;;83.68;27.35;;;9.60;99.90;;;;;;5117339;28;20468;-51
2022/09/21 01:56:00;;;;;;;74.47;25.30;;;9.50;99.90;;;;;;5054037;28;20039;-51
2022/09/21 01:58:41;;;;;;;68.35;23.27;;;9.60;99.90;;;;;;5053855;28;20497;-51
2022/09/21 02:01:13;;;;;;;57.88;20.08;;;9.70;99.90;;;;;;5054141;28;20036;-51
2022/09/21 02:03:47;;;;;;;51.15;19.23;;;9.60;99.90;;;;;;5053996;28;20075;-51
2022/09/21 02:06:15;;;;;;;52.78;19.88;;;9.50;99.90;;;;;;5054026;28;20029;-51
2022/09/21 02:08:41;;;;;;;40.30;17.15;;;9.40;99.90;;;;;;5053867;28;20048;-51
2022/09/21 02:11:07;;;;;;;35.15;16.08;;;9.50;99.90;;;;;;5054070;28;20036;-51
2022/09/21 02:13:45;;;;;;;37.53;16.35;;;9.60;99.90;;;;;;5053868;28;20043;-51
2022/09/21 02:16:29;;;;;;;35.25;16.50;;;9.50;99.90;;;;;;5053760;28;20489;-51
2022/09/21 02:19:34;;;;;;;35.15;16.65;;;9.50;99.90;;;;;;5053687;28;20024;-51
2022/09/21 02:22:32;;;;;;;40.35;16.88;;;9.40;99.90;;;;;;5053564;28;20033;-51
2022/09/21 02:25:12;;;;;;;38.85;17.73;;;9.30;99.90;;;;;;5050715;28;20040;-51
2022/09/21 02:27:58;;;;;;;35.05;15.95;;;9.30;99.90;;;;;;5053656;28;20632;-51
2022/09/21 02:30:25;;;;;;;31.13;15.38;;;9.30;99.90;;;;;;5097992;28;20121;-51
2022/09/21 02:33:16;;;;;;;32.17;16.13;;;9.40;99.90;;;;;;5116485;28;20027;-51
2022/09/21 02:36:07;;;;;;;33.85;16.25;;;9.40;99.90;;;;;;5116460;28;20020;-51
2022/09/21 02:38:36;;;;;;;31.08;14.32;;;9.40;99.90;;;;;;5116699;28;20029;-51
2022/09/21 02:41:08;;;;;;;34.40;16.08;;;9.30;99.90;;;;;;5116269;28;20027;-51
2022/09/21 02:44:00;;;;;;;25.23;13.70;;;9.20;99.90;;;;;;5116357;28;20127;-51
2022/09/21 02:46:36;;;;;;;30.13;13.48;;;9.10;99.90;;;;;;5113111;28;20423;-51
2022/09/21 02:49:09;;;;;;;29.85;14.10;;;8.90;99.90;;;;;;5116134;28;20024;-51
2022/09/21 02:51:41;;;;;;;28.77;13.65;;;8.80;99.90;;;;;;5116139;28;20024;-51
2022/09/21 02:54:11;;;;;;;25.27;13.40;;;8.80;99.90;;;;;;5116161;28;20038;-51
2022/09/21 02:56:38;;;;;;;23.58;12.15;;;8.70;99.90;;;;;;5116071;28;20028;-52
2022/09/21 02:59:05;;;;;;;23.33;11.68;;;8.70;99.90;;;;;;5116258;27;20035;-51
2022/09/21 03:01:32;;;;;;;25.85;13.40;;;8.70;99.90;;;;;;5115924;27;20295;-51
2022/09/21 03:03:59;;;;;;;27.38;13.43;;;8.60;99.90;;;;;;5115888;28;20504;-51
2022/09/21 03:06:25;;;;;;;28.52;13.65;;;8.50;99.90;;;;;;5115918;28;20034;-51
2022/09/21 03:08:51;;;;;;;28.38;14.18;;;8.50;99.90;;;;;;5115131;28;20043;-51
2022/09/21 03:11:18;;;;;;;28.48;14.20;;;8.50;99.90;;;;;;5115656;28;20024;-51
2022/09/21 03:13:44;;;;;;;25.00;13.20;;;8.40;99.90;;;;;;5115781;28;20185;-51
2022/09/21 03:16:11;;;;;;;23.95;12.68;;;8.60;99.90;;;;;;5115749;28;20035;-51
2022/09/21 03:18:38;;;;;;;23.73;12.70;;;8.70;99.90;;;;;;5115557;28;20062;-51
2022/09/21 03:21:05;;;;;;;21.00;11.80;;;8.70;99.90;;;;;;5115526;28;20098;-51
2022/09/21 03:23:31;;;;;;;23.48;12.23;;;8.70;99.90;;;;;;5115535;28;20081;-51
2022/09/21 03:25:57;;;;;;;24.70;11.80;;;8.70;99.90;;;;;;5115374;28;20068;-51
2022/09/21 03:28:24;;;;;;;27.00;14.15;;;8.80;99.90;;;;;;5115439;28;20461;-51
2022/09/21 03:30:51;;;;;;;31.05;13.65;;;8.80;99.90;;;;;;5115322;28;20035;-51
2022/09/21 03:33:18;;;;;;;35.30;14.00;;;8.80;99.90;;;;;;5115333;28;20027;-51
2022/09/21 03:35:46;;;;;;;27.95;13.55;;;8.90;99.90;;;;;;5115376;28;20031;-51
2022/09/21 03:38:13;;;;;;;32.13;15.75;;;8.90;99.90;;;;;;5115130;28;20024;-52
2022/09/21 03:40:38;;;;;;;36.50;15.82;;;8.80;99.90;;;;;;5115298;28;20030;-51
2022/09/21 03:43:05;;;;;;;33.28;15.45;;;8.70;99.90;;;;;;5115238;28;20020;-51
2022/09/21 03:45:31;;;;;;;30.48;14.85;;;8.60;99.90;;;;;;5115183;28;20392;-51
2022/09/21 03:47:58;;;;;;;28.27;14.82;;;8.50;99.90;;;;;;5115139;28;20066;-51
2022/09/21 03:50:28;;;;;;;30.60;14.73;;;8.40;99.90;;;;;;5115140;28;20051;-51
2022/09/21 03:52:55;;;;;;;33.60;15.20;;;8.40;99.90;;;;;;5115018;28;20059;-51
2022/09/21 03:55:21;;;;;;;34.65;17.20;;;8.30;99.90;;;;;;5115131;28;20019;-51
2022/09/21 03:57:47;;;;;;;42.83;19.23;;;8.30;99.90;;;;;;5115188;28;20020;-51
2022/09/21 04:00:14;;;;;;;49.78;19.23;;;8.20;99.90;;;;;;5114929;28;20027;-51
2022/09/21 04:02:40;;;;;;;45.38;20.85;;;8.20;99.90;;;;;;5114967;28;20063;-51
2022/09/21 04:05:13;;;;;;;49.40;20.17;;;8.20;99.90;;;;;;5115138;28;20023;-51
2022/09/21 04:07:40;;;;;;;44.25;20.63;;;8.20;99.90;;;;;;5115076;28;20042;-51
2022/09/21 04:10:11;;;;;;;44.13;20.48;;;8.20;99.90;;;;;;5114964;28;20116;-51
2022/09/21 04:12:38;;;;;;;;;;;8.20;99.90;;;;;;5115489;28;20028;-51
2022/09/21 04:15:06;;;;;;;45.17;17.95;;;8.30;99.90;;;;;;5114873;28;19911;-51
2022/09/21 04:17:33;;;;;;;38.72;18.35;;;8.40;99.90;;;;;;5114994;28;20077;-51
2022/09/21 04:20:00;;;;;;;51.67;20.90;;;8.30;99.90;;;;;;5115230;28;20032;-51
2022/09/21 04:22:25;;;;;;;56.10;24.20;;;8.40;99.90;;;;;;5118997;28;20080;-51
2022/09/21 04:24:51;;;;;;;100.07;35.80;;;8.40;99.90;;;;;;5118933;28;20053;-51
2022/09/21 04:27:17;;;;;;;125.78;40.97;;;8.50;99.90;;;;;;5118874;28;20020;-51
2022/09/21 04:29:43;;;;;;;120.63;38.70;;;8.60;99.90;;;;;;5118891;27;20030;-51
2022/09/21 04:32:10;;;;;;;117.97;40.75;;;8.50;99.90;;;;;;5118827;28;20639;-51
2022/09/21 04:34:38;;;;;;;93.80;33.78;;;8.60;99.90;;;;;;5118649;27;20031;-52
2022/09/21 04:37:07;;;;;;;104.50;33.65;;;8.50;99.90;;;;;;5118772;27;20051;-51
2022/09/21 04:39:34;;;;;;;93.25;30.85;;;8.60;99.90;;;;;;5118570;28;20019;-51
2022/09/21 04:42:00;;;;;;;89.05;27.65;;;8.60;99.90;;;;;;5118535;28;20036;-51
2022/09/21 04:44:26;;;;;;;84.00;28.05;;;8.70;99.90;;;;;;5118656;28;20129;-51
2022/09/21 04:46:53;;;;;;;85.35;27.73;;;8.70;99.90;;;;;;5118382;28;20059;-51
2022/09/21 04:49:19;;;;;;;91.68;28.83;;;8.80;99.90;;;;;;5118297;28;20034;-51
2022/09/21 04:51:44;;;;;;;94.53;29.98;;;8.80;99.90;;;;;;5118501;28;20050;-51
2022/09/21 04:54:10;;;;;;;90.22;29.30;;;8.70;99.90;;;;;;5118329;28;20031;-52
2022/09/21 04:56:36;;;;;;;75.60;26.63;;;8.70;99.90;;;;;;5118390;28;20028;-51
2022/09/21 04:59:03;;;;;;;75.82;23.60;;;8.60;99.90;;;;;;5118100;28;20027;-51
2022/09/21 05:01:29;;;;;;;57.92;21.73;;;8.70;99.90;;;;;;5118258;28;20023;-51
2022/09/21 05:04:00;;;;;;;48.92;19.83;;;8.60;99.90;;;;;;5118366;28;20087;-51
2022/09/21 05:06:27;;;;;;;44.28;20.08;;;8.70;99.90;;;;;;5118120;28;20047;-51
2022/09/21 05:11:38;;;;;;;58.05;21.23;;;8.60;99.90;;;;;;5118151;28;20066;-51
2022/09/21 05:14:04;;;;;;;57.13;22.50;;;8.60;99.90;;;;;;5117679;28;20032;-51
2022/09/21 05:16:30;;;;;;;63.92;23.95;;;8.70;99.90;;;;;;5115955;27;20043;-51
2022/09/21 05:18:56;;;;;;;58.28;24.42;;;8.80;99.90;;;;;;5117445;28;20365;-51
2022/09/21 05:21:22;;;;;;;58.70;23.05;;;8.70;99.90;;;;;;5112929;28;20024;-51
2022/09/21 05:23:48;;;;;;;60.70;24.10;;;8.70;99.90;;;;;;5118427;28;20023;-55
2022/09/21 05:26:14;;;;;;;63.85;25.85;;;8.80;99.90;;;;;;5118272;28;20079;-51
2022/09/21 05:28:41;;;;;;;91.90;33.03;;;8.70;99.90;;;;;;5118385;28;20031;-51
2022/09/21 05:31:28;;;;;;;81.82;31.20;;;8.80;99.90;;;;;;5117506;28;20107;-51
2022/09/21 05:34:02;;;;;;;77.90;29.33;;;8.90;99.90;;;;;;5111189;27;20058;-51
2022/09/21 05:36:34;;;;;;;90.85;29.77;;;9.10;99.90;;;;;;5117487;28;20058;-51
2022/09/21 05:39:00;;;;;;;96.63;32.38;;;9.10;99.90;;;;;;5116623;28;20552;-51
2022/09/21 05:41:26;;;;;;;80.07;28.92;;;9.20;99.90;;;;;;5113404;28;20024;-51
2022/09/21 05:43:52;;;;;;;93.00;29.13;;;9.30;99.90;;;;;;5116884;28;20527;-51
2022/09/21 05:46:34;;;;;;;89.50;29.17;;;9.40;99.90;;;;;;5117269;28;20020;-51
2022/09/21 05:49:22;;;;;;;95.75;31.58;;;9.40;99.90;;;;;;5115581;28;20065;-51
2022/09/21 05:52:05;;;;;;;92.65;33.45;;;9.50;99.90;;;;;;5117226;28;20023;-51
2022/09/21 05:54:51;;;;;;;86.60;33.58;;;9.60;99.90;;;;;;5117971;28;20035;-51
2022/09/21 05:57:55;;;;;;;75.25;30.35;;;9.70;99.90;;;;;;5117291;28;20477;-52
2022/09/21 06:00:22;;;;;;;74.30;31.45;;;9.80;99.90;;;;;;5116498;27;20405;-51
2022/09/21 06:03:10;;;;;;;95.47;34.53;;;9.90;99.90;;;;;;5116894;28;20377;-51
2022/09/21 06:05:36;;;;;;;95.60;34.90;;;9.90;99.90;;;;;;5116929;28;20043;-51
2022/09/21 06:08:02;;;;;;;95.55;37.53;;;9.90;99.90;;;;;;5114944;28;20020;-51
2022/09/21 06:10:33;;;;;;;101.85;36.65;;;10.10;99.90;;;;;;5116528;28;20053;-52
2022/09/21 06:12:59;;;;;;;95.63;33.88;;;10.00;99.90;;;;;;5116834;28;20081;-51
2022/09/21 06:15:25;;;;;;;87.57;31.42;;;10.00;99.90;;;;;;5116783;28;20024;-51
2022/09/21 06:17:57;;;;;;;78.50;33.63;;;10.10;99.90;;;;;;5116543;28;20031;-51
2022/09/21 06:20:23;;;;;;;87.95;32.60;;;10.10;99.90;;;;;;5116460;28;20418;-52
2022/09/21 06:22:50;;;;;;;96.30;32.00;;;10.10;99.90;;;;;;5116509;28;20035;-51
2022/09/21 06:25:19;;;;;;;87.65;33.47;;;10.10;99.90;;;;;;5116379;28;20028;-52
2022/09/21 06:27:44;;;;;;;79.15;33.45;;;10.10;99.90;;;;;;5116439;28;20016;-51
2022/09/21 06:30:11;;;;;;;81.97;34.75;;;10.20;99.90;;;;;;5116558;27;20102;-51
2022/09/21 06:32:39;;;;;;;79.80;32.97;;;10.20;99.90;;;;;;5116366;28;20054;-51
2022/09/21 06:35:06;;;;;;;84.97;32.90;;;10.30;99.90;;;;;;5116325;28;20019;-51
2022/09/21 06:37:32;;;;;;;70.65;31.20;;;10.50;99.90;;;;;;5116241;28;20032;-51
2022/09/21 06:39:58;;;;;;;73.45;31.77;;;10.60;99.90;;;;;;5116034;28;20027;-51
2022/09/21 06:42:24;;;;;;;77.70;33.20;;;10.70;99.90;;;;;;5116456;28;20028;-51
2022/09/21 06:44:50;;;;;;;77.78;30.83;;;10.60;99.90;;;;;;5106755;28;20035;-51
2022/09/21 06:47:16;;;;;;;88.70;37.95;;;10.80;99.90;;;;;;5108380;28;20028;-52
2022/09/21 06:49:42;;;;;;;56.67;26.13;;;10.90;99.90;;;;;;5116484;28;20023;-51
2022/09/21 06:52:08;;;;;;;48.42;23.73;;;10.90;99.90;;;;;;5116754;28;20032;-52
2022/09/21 06:54:34;;;;;;;50.30;22.40;;;10.90;99.90;;;;;;5116656;28;20085;-52
2022/09/21 06:57:00;;;;;;;46.95;20.42;;;10.90;99.90;;;;;;5116741;28;20232;-52
2022/09/21 06:59:25;;;;;;;43.47;18.08;;;10.70;99.90;;;;;;5116604;28;20098;-52
2022/09/21 07:01:54;;;;;;;43.88;19.17;;;10.90;99.90;;;;;;5116491;28;20034;-51
2022/09/21 07:04:23;;;;;;;40.97;18.98;;;10.90;99.90;;;;;;5115410;28;20062;-51
2022/09/21 07:06:49;;;;;;;36.90;17.75;;;11.00;99.90;;;;;;5116369;28;20039;-51
2022/09/21 07:09:15;;;;;;;38.85;18.85;;;11.10;99.90;;;;;;5116100;28;20803;-51
2022/09/21 07:11:41;;;;;;;38.88;19.10;;;11.20;99.90;;;;;;5116595;28;20059;-51
2022/09/21 07:14:07;;;;;;;39.80;18.77;;;11.20;99.90;;;;;;5116469;28;20023;-52
2022/09/21 07:16:33;;;;;;;42.08;16.30;;;11.30;99.90;;;;;;5115311;28;20046;-52
2022/09/21 07:18:59;;;;;;;33.67;16.83;;;11.40;99.90;;;;;;5115069;28;20023;-52
2022/09/21 07:21:25;;;;;;;39.30;18.67;;;11.50;99.90;;;;;;5115388;28;20039;-52
2022/09/21 07:23:51;;;;;;;39.03;20.60;;;11.60;99.90;;;;;;5115379;28;20098;-52
2022/09/21 07:26:17;;;;;;;40.35;18.90;;;11.60;99.90;;;;;;5106526;28;20106;-52
2022/09/21 07:28:43;;;;;;;39.40;17.98;;;11.70;99.90;;;;;;5115057;28;20085;-52
2022/09/21 07:31:12;;;;;;;44.97;18.50;;;11.70;99.90;;;;;;5115209;28;20028;-52
2022/09/21 07:33:39;;;;;;;34.50;18.45;;;11.70;99.90;;;;;;5115252;28;20023;-52
2022/09/21 07:36:09;;;;;;;25.63;14.48;;;11.80;99.90;;;;;;5115434;28;20023;-52
2022/09/21 07:38:39;;;;;;;23.42;12.25;;;11.90;99.90;;;;;;5114743;28;20096;-52
2022/09/21 07:41:10;;;;;;;20.70;10.73;;;11.90;99.90;;;;;;5115072;28;20031;-52
2022/09/21 07:43:38;;;;;;;;;;;11.90;99.90;;;;;;5111636;28;20415;-52
2022/09/21 07:46:05;;;;;;;22.38;11.90;;;11.90;99.90;;;;;;5115412;28;19987;-52
2022/09/21 07:48:31;;;;;;;26.00;11.75;;;11.90;99.90;;;;;;5114845;28;20110;-52
2022/09/21 07:51:03;;;;;;;27.13;12.80;;;11.90;99.90;;;;;;5115022;28;20054;-52
2022/09/21 07:53:30;;;;;;;27.83;11.95;;;12.00;99.90;;;;;;5115406;28;20376;-52
2022/09/21 07:56:04;;;;;;;26.20;12.07;;;12.30;99.90;;;;;;5115448;28;20111;-52
2022/09/21 08:01:15;;;;;;;15.15;9.35;;;12.60;99.90;;;;;;5115418;28;20035;-52
2022/09/21 08:03:41;;;;;;;13.00;6.53;;;12.70;99.90;;;;;;5115802;28;20419;-52
2022/09/21 08:06:08;;;;;;;25.67;8.52;;;12.80;99.90;;;;;;5115487;28;20020;-52
2022/09/21 08:08:34;;;;;;;11.95;6.60;;;13.00;99.90;;;;;;5115354;28;20046;-52
2022/09/21 08:11:05;;;;;;;12.25;6.78;;;13.10;99.90;;;;;;5115452;28;20039;-52
2022/09/21 08:13:31;;;;;;;12.20;6.50;;;13.10;99.90;;;;;;5115355;28;20039;-52
2022/09/21 08:15:58;;;;;;;16.52;7.30;;;13.30;99.90;;;;;;5115570;28;20034;-52
2022/09/21 08:18:25;;;;;;;18.55;8.65;;;13.40;99.90;;;;;;5115195;28;20032;-52
2022/09/21 08:20:59;;;;;;;10.88;6.38;;;13.40;99.90;;;;;;5115276;28;20483;-52
2022/09/21 08:23:27;;;;;;;20.15;9.82;;;13.40;99.90;;;;;;5115301;28;20425;-52
2022/09/21 08:26:01;;;;;;;18.58;8.45;;;13.40;99.90;;;;;;5115337;28;20030;-52
2022/09/21 08:28:30;;;;;;;19.05;6.80;;;13.60;99.90;;;;;;5113875;28;20019;-52
2022/09/21 08:31:04;;;;;;;17.77;7.60;;;13.60;99.90;;;;;;5115302;28;20407;-52
2022/09/21 08:33:31;;;;;;;23.38;9.20;;;13.70;99.90;;;;;;5115104;28;20085;-52
2022/09/21 08:35:59;;;;;;;21.10;9.82;;;13.80;99.90;;;;;;5115069;28;20024;-52
2022/09/21 08:38:30;;;;;;;19.30;9.60;;;13.80;99.90;;;;;;5115014;28;20353;-52
2022/09/21 08:40:56;;;;;;;21.00;8.23;;;13.70;99.90;;;;;;5115083;28;20485;-52
2022/09/21 08:43:30;;;;;;;13.52;6.90;;;13.60;99.90;;;;;;5114921;28;20511;-52
2022/09/21 08:45:58;;;;;;;13.70;5.82;;;13.80;99.90;;;;;;5115269;28;20388;-52
2022/09/21 08:48:28;;;;;;;11.90;5.90;;;13.70;99.90;;;;;;5096413;28;20051;-52
2022/09/21 08:51:05;;;;;;;8.70;5.10;;;13.80;99.90;;;;;;5114802;28;20024;-52
2022/09/21 08:53:39;;;;;;;14.75;8.73;;;13.90;99.90;;;;;;5115097;28;20055;-52
2022/09/21 08:56:07;;;;;;;16.02;6.65;;;14.20;99.90;;;;;;5115073;28;20449;-52
2022/09/21 08:58:37;;;;;;;7.97;4.32;;;14.50;99.90;;;;;;5114483;28;20020;-52
2022/09/21 09:01:31;;;;;;;15.05;5.70;;;14.60;99.90;;;;;;5114973;28;20035;-52
2022/09/21 09:04:03;;;;;;;9.88;4.57;;;14.70;99.90;;;;;;5114974;28;20027;-52
2022/09/21 09:07:06;;;;;;;27.52;11.35;;;14.80;99.90;;;;;;5116022;28;20031;-52
2022/09/21 09:10:00;;;;;;;14.18;4.60;;;14.70;99.90;;;;;;5117974;28;20653;-52
2022/09/21 09:12:57;;;;;;;10.48;5.88;;;14.80;99.90;;;;;;5118087;28;20057;-52
2022/09/21 09:19:32;;;;;;;6.32;3.00;;;14.50;99.90;;;;;;5075894;28;20048;-52
2022/09/21 09:22:03;;;;;;;5.22;2.83;;;14.90;99.90;;;;;;5076929;28;20485;-52
2022/09/21 09:24:37;;;;;;;9.27;2.80;;;15.90;99.90;;;;;;5077741;28;20031;-52
2022/09/21 09:27:14;;;;;;;6.30;3.45;;;16.90;98.40;;;;;;5077373;28;20024;-52
2022/09/21 09:29:52;;;;;;;5.97;3.20;;;17.50;95.50;;;;;;5077560;28;20452;-52
2022/09/21 09:32:18;;;;;;;9.98;3.63;;;18.00;85.70;;;;;;5077496;28;20024;-53
2022/09/21 09:35:06;;;;;;;6.78;3.00;;;18.00;84.40;;;;;;5077458;28;20028;-53
2022/09/21 09:37:37;;;;;;;6.68;2.97;;;17.40;80.20;;;;;;5077637;28;20036;-52
2022/09/21 09:40:07;;;;;;;13.68;3.92;;;17.10;85.10;;;;;;5076231;28;20102;-53
2022/09/21 09:43:09;;;;;;;12.77;3.42;;;16.80;83.50;;;;;;5076316;28;20051;-52
2022/09/21 09:46:07;;;;;;;17.02;4.90;;;16.40;83.20;;;;;;5044397;28;20040;-52
2022/09/21 09:48:48;;;;;;;11.57;4.68;;;16.00;88.50;;;;;;5036997;28;20131;-52
2022/09/21 09:51:14;;;;;;;11.30;5.43;;;15.70;91.50;;;;;;5089935;28;20112;-52
2022/09/21 09:53:40;;;;;;;16.65;5.20;;;15.80;91.60;;;;;;5096372;28;20068;-52
2022/09/21 09:56:09;;;;;;;13.40;4.50;;;15.70;93.40;;;;;;5096830;28;20028;-52
2022/09/21 09:58:55;;;;;;;5.57;3.70;;;15.40;94.10;;;;;;5096534;28;20027;-52
2022/09/21 10:01:41;;;;;;;8.85;3.90;;;15.30;96.30;;;;;;5096483;28;20050;-52
2022/09/21 10:04:10;;;;;;;15.07;5.40;;;14.90;99.20;;;;;;5096453;28;20028;-52
2022/09/21 10:06:37;;;;;;;8.93;4.60;;;14.90;99.10;;;;;;5096361;28;20107;-52
2022/09/21 10:09:21;;;;;;;15.23;5.63;;;15.10;98.60;;;;;;5103616;28;20465;-52
2022/09/21 10:11:48;;;;;;;12.38;5.28;;;15.10;98.70;;;;;;5116604;28;20042;-52
2022/09/21 10:14:20;;;;;;;11.65;4.70;;;15.00;99.90;;;;;;5116640;28;20452;-52
2022/09/21 10:16:50;;;;;;;9.25;4.45;;;15.00;99.10;;;;;;5116575;28;20035;-53
2022/09/21 10:19:26;;;;;;;33.80;7.97;;;15.10;99.90;;;;;;5116536;28;20043;-53
2022/09/21 10:21:57;;;;;;;15.98;4.68;;;15.00;99.90;;;;;;5116449;28;20053;-53
2022/09/21 10:24:34;;;;;;;;;;;15.10;99.90;;;;;;5116930;28;20020;-53
2022/09/21 10:27:10;;;;;;;12.40;4.25;;;15.30;99.90;;;;;;5116501;28;19915;-52
2022/09/21 10:29:43;;;;;;;32.08;3.88;;;15.30;98.10;;;;;;5114499;28;20072;-52
2022/09/21 10:32:13;;;;;;;14.80;4.95;;;14.80;98.20;;;;;;5116352;28;20035;-52
2022/09/21 10:34:42;;;;;;;12.15;5.47;;;15.00;98.30;;;;;;5098028;28;20114;-52
2022/09/21 10:37:39;;;;;;;10.57;3.70;;;15.10;98.10;;;;;;5114499;28;20118;-52
2022/09/21 10:40:23;;;;;;;9.70;5.20;;;14.80;97.90;;;;;;5095024;28;20063;-52
2022/09/21 10:42:58;;;;;;;11.60;3.50;;;15.00;97.60;;;;;;5095377;28;20504;-53
2022/09/21 10:45:36;;;;;;;18.63;3.97;;;15.20;98.10;;;;;;5108782;28;20594;-52
2022/09/21 10:48:05;;;;;;;5.55;2.92;;;15.20;97.70;;;;;;5116113;28;20080;-52
2022/09/21 10:50:36;;;;;;;4.97;2.63;;;15.40;95.80;;;;;;5115862;28;20175;-52
2022/09/21 10:53:27;;;;;;;17.55;4.47;;;15.60;94.70;;;;;;5136325;27;20072;-52
2022/09/21 10:56:18;;;;;;;9.77;3.92;;;16.30;96.00;;;;;;5136292;27;20514;-52
2022/09/21 10:59:21;;;;;;;8.75;2.88;;;16.80;90.50;;;;;;5126342;27;20118;-52
2022/09/21 11:01:49;;;;;;;4.30;2.15;;;16.80;86.40;;;;;;5132056;27;20027;-52
2022/09/21 11:04:37;;;;;;;5.47;2.97;;;17.40;87.20;;;;;;5136145;27;20411;-52
2022/09/21 11:07:18;;;;;;;16.55;4.57;;;17.30;80.20;;;;;;5134551;27;20380;-52
2022/09/21 11:09:56;;;;;;;6.32;2.75;;;17.70;82.30;;;;;;5130951;27;20377;-53
2022/09/21 11:12:40;;;;;;;10.20;3.28;;;17.70;75.50;;;;;;5105619;27;20039;-53
2022/09/21 11:15:19;;;;;;;13.05;4.05;;;17.40;77.00;;;;;;5124557;27;20046;-53
2022/09/21 11:17:54;;;;;;;12.68;3.90;;;17.10;78.50;;;;;;5098415;27;20514;-52
2022/09/21 11:20:38;;;;;;;8.63;3.78;;;17.20;78.90;;;;;;5130361;27;20862;-53
2022/09/21 11:23:22;;;;;;;18.40;4.40;;;17.20;79.80;;;;;;5094756;27;20051;-53
2022/09/21 11:26:26;;;;;;;27.42;8.30;;;17.20;80.60;;;;;;5113282;27;20049;-53
2022/09/21 11:29:24;;;;;;;17.73;5.38;;;17.50;79.30;;;;;;5065376;28;20073;-53
2022/09/21 11:32:25;;;;;;;6.05;2.72;;;17.30;75.80;;;;;;5059115;28;20123;-53
2022/09/21 11:35:02;;;;;;;11.15;4.38;;;17.10;75.00;;;;;;5002009;28;20559;-53
2022/09/21 11:37:31;;;;;;;5.55;2.58;;;17.40;77.00;;;;;;5050040;28;20486;-53
2022/09/21 11:40:19;;;;;;;12.18;4.03;;;16.90;75.70;;;;;;5051647;28;20398;-53
2022/09/21 11:42:50;;;;;;;14.45;5.05;;;17.00;77.60;;;;;;5069210;28;20037;-53
2022/09/21 11:45:31;;;;;;;11.90;4.07;;;16.90;76.20;;;;;;5052650;28;20142;-53
2022/09/21 11:47:59;;;;;;;2.53;1.63;;;17.20;79.20;;;;;;5052477;28;20032;-53
2022/09/21 11:50:52;;;;;;;7.88;2.65;;;17.20;75.90;;;;;;5052423;28;20222;-53
2022/09/21 11:53:27;;;;;;;7.32;3.42;;;17.60;74.10;;;;;;5035738;28;20033;-53
2022/09/21 11:56:17;;;;;;;5.00;2.40;;;17.80;75.30;;;;;;5052467;28;20033;-53
2022/09/21 11:58:52;;;;;;;14.90;3.97;;;18.00;70.20;;;;;;5045655;28;20033;-53
2022/09/21 12:01:47;;;;;;;2.97;2.00;;;18.00;68.70;;;;;;5043731;28;20124;-53
2022/09/21 12:04:32;;;;;;;4.50;2.30;;;18.70;69.40;;;;;;5085742;28;20050;-53
2022/09/21 12:07:18;;;;;;;11.75;4.60;;;18.70;67.40;;;;;;5087942;28;20055;-53
2022/09/21 12:09:56;;;;;;;12.93;3.92;;;19.10;67.70;;;;;;5087080;28;20031;-53
2022/09/21 12:12:37;;;;;;;10.98;3.67;;;19.70;66.80;;;;;;5086187;28;20033;-53
2022/09/21 12:15:15;;;;;;;16.70;3.85;;;19.30;64.50;;;;;;5089658;28;20507;-53
2022/09/21 12:17:52;;;;;;;10.45;2.30;;;19.40;61.40;;;;;;5094116;28;20205;-53
2022/09/21 12:20:47;;;;;;;10.20;3.30;;;19.60;60.40;;;;;;5085483;28;20035;-53
2022/09/21 12:23:26;;;;;;;12.80;3.75;;;18.70;63.60;;;;;;5101618;28;20028;-53
2022/09/21 12:25:57;;;;;;;12.00;3.88;;;18.60;64.70;;;;;;5113142;28;20059;-53
2022/09/21 12:28:49;;;;;;;15.90;3.78;;;18.80;64.50;;;;;;5115138;28;20464;-53
2022/09/21 12:31:49;;;;;;;27.70;9.23;;;19.00;62.60;;;;;;5108712;28;20053;-53
2022/09/21 12:34:23;;;;;;;11.82;5.18;;;18.90;67.80;;;;;;5107416;28;20039;-53
2022/09/21 12:37:17;;;;;;;16.90;6.15;;;18.60;67.60;;;;;;5101018;28;20066;-53
2022/09/21 12:40:05;;;;;;;16.23;6.07;;;18.40;65.70;;;;;;5105865;28;20063;-53
2022/09/21 12:42:48;;;;;;;10.77;3.63;;;17.80;68.70;;;;;;5125588;27;20051;-53
2022/09/21 12:45:22;;;;;;;24.15;7.97;;;17.70;72.60;;;;;;5099819;28;20040;-53
2022/09/21 12:48:00;;;;;;;10.10;5.10;;;17.60;71.00;;;;;;5112989;28;20032;-53
2022/09/21 12:50:38;;;;;;;7.00;2.97;;;17.60;72.90;;;;;;5117632;28;20428;-53
2022/09/21 12:53:08;;;;;;;6.43;2.47;;;17.90;71.00;;;;;;5092590;28;20063;-53
2022/09/21 12:56:04;;;;;;;8.00;3.83;;;18.20;70.50;;;;;;5104684;28;20031;-53
2022/09/21 12:58:44;;;;;;;13.45;4.18;;;17.80;68.50;;;;;;5112366;28;20028;-53
2022/09/21 13:01:13;;;;;;;13.40;5.47;;;17.80;70.90;;;;;;5106465;28;20421;-53
2022/09/21 13:03:55;;;;;;;24.42;4.82;;;17.80;70.60;;;;;;5110630;28;20027;-53
2022/09/21 13:07:02;;;;;;;11.32;3.63;;;18.10;73.80;;;;;;5105873;28;20020;-53
2022/09/21 13:09:30;;;;;;;12.00;4.05;;;18.60;72.80;;;;;;5026559;28;20068;-53
2022/09/21 13:12:01;;;;;;;6.40;2.90;;;19.20;71.40;;;;;;5023253;28;20385;-53
2022/09/21 13:14:33;;;;;;;10.23;3.60;;;19.00;65.90;;;;;;5027977;28;20077;-53
2022/09/21 13:17:02;;;;;;;4.55;2.58;;;19.10;66.20;;;;;;5034711;28;20041;-53
2022/09/21 13:19:30;;;;;;;6.82;2.72;;;19.20;63.10;;;;;;5034703;28;20489;-53